sensor_id;sensor_type;location;lat;lon;timestamp;P1;durP1;ratioP1;P2;durP2;ratioP2
39050;SDS011;24805;55.852;37.644;2023-03-14T00:03:43;5.38;;;2.50;;
39050;SDS011;24805;55.852;37.644;2023-03-14T00:08:46;6.18;;;2.67;;
39050;SDS011;24805;55.852;37.644;2023-03-14T00:14:07;4.70;;;3.00;;
39050;SDS011;24805;55.852;37.644;2023-03-14T00:19:27;4.77;;;2.40;;
39050;SDS011;24805;55.852;37.644;2023-03-14T00:24:48;6.35;;;1.92;;
39050;SDS011;24805;55.852;37.644;2023-03-14T00:30:10;5.55;;;2.70;;
39050;SDS011;24805;55.852;37.644;2023-03-14T00:35:30;5.60;;;2.37;;
39050;SDS011;24805;55.852;37.644;2023-03-14T00:40:51;3.03;;;1.53;;
39050;SDS011;24805;55.852;37.644;2023-03-14T00:46:12;5.13;;;2.07;;
39050;SDS011;24805;55.852;37.644;2023-03-14T00:51:36;4.72;;;1.77;;
39050;SDS011;24805;55.852;37.644;2023-03-14T00:56:38;5.25;;;1.60;;
39050;SDS011;24805;55.852;37.644;2023-03-14T01:01:40;5.22;;;2.25;;
39050;SDS011;24805;55.852;37.644;2023-03-14T01:06:43;2.85;;;1.42;;
39050;SDS011;24805;55.852;37.644;2023-03-14T01:11:46;3.67;;;1.73;;
39050;SDS011;24805;55.852;37.644;2023-03-14T01:16:48;3.25;;;1.60;;
39050;SDS011;24805;55.852;37.644;2023-03-14T01:22:09;2.95;;;1.80;;
39050;SDS011;24805;55.852;37.644;2023-03-14T01:32:32;2.83;;;1.58;;
39050;SDS011;24805;55.852;37.644;2023-03-14T01:37:34;4.32;;;1.60;;
39050;SDS011;24805;55.852;37.644;2023-03-14T01:42:38;3.75;;;1.40;;
39050;SDS011;24805;55.852;37.644;2023-03-14T01:47:45;3.75;;;1.70;;
39050;SDS011;24805;55.852;37.644;2023-03-14T01:52:48;3.97;;;1.80;;
39050;SDS011;24805;55.852;37.644;2023-03-14T01:57:56;4.57;;;1.80;;
39050;SDS011;24805;55.852;37.644;2023-03-14T02:03:05;4.35;;;1.95;;
39050;SDS011;24805;55.852;37.644;2023-03-14T02:08:12;2.92;;;1.63;;
39050;SDS011;24805;55.852;37.644;2023-03-14T02:13:30;4.60;;;2.50;;
39050;SDS011;24805;55.852;37.644;2023-03-14T02:18:51;3.05;;;1.77;;
39050;SDS011;24805;55.852;37.644;2023-03-14T02:29:26;5.22;;;2.47;;
39050;SDS011;24805;55.852;37.644;2023-03-14T02:34:30;5.22;;;2.45;;
39050;SDS011;24805;55.852;37.644;2023-03-14T02:39:38;8.88;;;2.65;;
39050;SDS011;24805;55.852;37.644;2023-03-14T02:44:48;4.67;;;2.70;;
39050;SDS011;24805;55.852;37.644;2023-03-14T02:50:05;4.35;;;2.50;;
39050;SDS011;24805;55.852;37.644;2023-03-14T02:55:11;8.48;;;3.20;;
39050;SDS011;24805;55.852;37.644;2023-03-14T03:00:16;4.78;;;1.92;;
39050;SDS011;24805;55.852;37.644;2023-03-14T03:05:19;5.82;;;3.58;;
39050;SDS011;24805;55.852;37.644;2023-03-14T03:10:21;5.65;;;3.40;;
39050;SDS011;24805;55.852;37.644;2023-03-14T03:15:23;5.60;;;3.70;;
39050;SDS011;24805;55.852;37.644;2023-03-14T03:20:26;7.55;;;3.97;;
39050;SDS011;24805;55.852;37.644;2023-03-14T03:25:28;5.60;;;2.97;;
39050;SDS011;24805;55.852;37.644;2023-03-14T03:30:30;5.30;;;3.90;;
39050;SDS011;24805;55.852;37.644;2023-03-14T03:35:33;6.85;;;4.10;;
39050;SDS011;24805;55.852;37.644;2023-03-14T03:40:35;7.45;;;4.40;;
39050;SDS011;24805;55.852;37.644;2023-03-14T03:45:38;8.88;;;4.75;;
39050;SDS011;24805;55.852;37.644;2023-03-14T03:50:45;6.68;;;3.72;;
39050;SDS011;24805;55.852;37.644;2023-03-14T03:55:50;8.13;;;3.80;;
39050;SDS011;24805;55.852;37.644;2023-03-14T04:00:53;8.43;;;4.20;;
39050;SDS011;24805;55.852;37.644;2023-03-14T04:06:03;6.28;;;3.10;;
39050;SDS011;24805;55.852;37.644;2023-03-14T04:11:10;7.82;;;5.03;;
39050;SDS011;24805;55.852;37.644;2023-03-14T04:16:39;8.90;;;5.82;;
39050;SDS011;24805;55.852;37.644;2023-03-14T04:21:48;8.65;;;5.30;;
39050;SDS011;24805;55.852;37.644;2023-03-14T04:26:51;6.93;;;4.80;;
39050;SDS011;24805;55.852;37.644;2023-03-14T04:31:54;7.53;;;5.13;;
39050;SDS011;24805;55.852;37.644;2023-03-14T04:36:56;9.45;;;6.80;;
39050;SDS011;24805;55.852;37.644;2023-03-14T04:42:08;10.80;;;5.35;;
39050;SDS011;24805;55.852;37.644;2023-03-14T04:47:12;8.73;;;6.50;;
39050;SDS011;24805;55.852;37.644;2023-03-14T04:52:15;7.78;;;5.47;;
39050;SDS011;24805;55.852;37.644;2023-03-14T04:57:18;14.88;;;6.22;;
39050;SDS011;24805;55.852;37.644;2023-03-14T05:02:21;9.95;;;6.05;;
39050;SDS011;24805;55.852;37.644;2023-03-14T05:07:53;12.57;;;5.50;;
39050;SDS011;24805;55.852;37.644;2023-03-14T05:13:14;8.82;;;5.35;;
39050;SDS011;24805;55.852;37.644;2023-03-14T05:18:34;10.52;;;5.43;;
39050;SDS011;24805;55.852;37.644;2023-03-14T05:23:57;8.27;;;4.30;;
39050;SDS011;24805;55.852;37.644;2023-03-14T05:29:26;10.43;;;4.68;;
39050;SDS011;24805;55.852;37.644;2023-03-14T05:34:54;7.55;;;4.18;;
39050;SDS011;24805;55.852;37.644;2023-03-14T05:40:25;14.80;;;5.00;;
39050;SDS011;24805;55.852;37.644;2023-03-14T05:45:36;9.40;;;5.03;;
39050;SDS011;24805;55.852;37.644;2023-03-14T05:50:58;8.93;;;5.15;;
39050;SDS011;24805;55.852;37.644;2023-03-14T05:56:18;9.05;;;4.32;;
39050;SDS011;24805;55.852;37.644;2023-03-14T06:01:40;9.13;;;4.30;;
39050;SDS011;24805;55.852;37.644;2023-03-14T06:06:52;9.90;;;4.00;;
39050;SDS011;24805;55.852;37.644;2023-03-14T06:11:55;7.47;;;3.72;;
39050;SDS011;24805;55.852;37.644;2023-03-14T06:16:58;5.95;;;3.45;;
39050;SDS011;24805;55.852;37.644;2023-03-14T06:22:03;5.50;;;3.05;;
39050;SDS011;24805;55.852;37.644;2023-03-14T06:27:08;5.22;;;2.83;;
39050;SDS011;24805;55.852;37.644;2023-03-14T06:32:10;5.10;;;3.13;;
39050;SDS011;24805;55.852;37.644;2023-03-14T06:37:13;5.55;;;3.15;;
39050;SDS011;24805;55.852;37.644;2023-03-14T06:42:15;8.93;;;3.15;;
39050;SDS011;24805;55.852;37.644;2023-03-14T06:47:19;5.85;;;3.00;;
39050;SDS011;24805;55.852;37.644;2023-03-14T06:52:21;6.18;;;2.45;;
39050;SDS011;24805;55.852;37.644;2023-03-14T06:57:23;4.50;;;2.67;;
39050;SDS011;24805;55.852;37.644;2023-03-14T07:02:25;9.20;;;2.90;;
39050;SDS011;24805;55.852;37.644;2023-03-14T07:07:52;6.32;;;3.25;;
39050;SDS011;24805;55.852;37.644;2023-03-14T07:12:54;9.93;;;3.83;;
39050;SDS011;24805;55.852;37.644;2023-03-14T07:17:59;4.60;;;2.97;;
39050;SDS011;24805;55.852;37.644;2023-03-14T07:23:02;6.10;;;2.75;;
39050;SDS011;24805;55.852;37.644;2023-03-14T07:28:11;8.45;;;2.95;;
39050;SDS011;24805;55.852;37.644;2023-03-14T07:33:16;5.40;;;2.50;;
39050;SDS011;24805;55.852;37.644;2023-03-14T07:38:18;6.72;;;2.88;;
39050;SDS011;24805;55.852;37.644;2023-03-14T07:43:43;6.90;;;2.92;;
39050;SDS011;24805;55.852;37.644;2023-03-14T07:48:45;6.57;;;2.83;;
39050;SDS011;24805;55.852;37.644;2023-03-14T07:53:47;11.32;;;2.88;;
39050;SDS011;24805;55.852;37.644;2023-03-14T07:58:49;4.85;;;2.65;;
39050;SDS011;24805;55.852;37.644;2023-03-14T08:03:52;7.63;;;2.85;;
39050;SDS011;24805;55.852;37.644;2023-03-14T08:08:54;8.40;;;3.20;;
39050;SDS011;24805;55.852;37.644;2023-03-14T08:13:56;5.32;;;3.22;;
39050;SDS011;24805;55.852;37.644;2023-03-14T08:18:58;11.52;;;3.55;;
39050;SDS011;24805;55.852;37.644;2023-03-14T08:24:01;8.65;;;2.90;;
39050;SDS011;24805;55.852;37.644;2023-03-14T08:29:03;4.80;;;2.75;;
39050;SDS011;24805;55.852;37.644;2023-03-14T08:34:06;4.50;;;2.95;;
39050;SDS011;24805;55.852;37.644;2023-03-14T08:39:08;6.18;;;3.30;;
39050;SDS011;24805;55.852;37.644;2023-03-14T08:44:11;5.95;;;2.95;;
39050;SDS011;24805;55.852;37.644;2023-03-14T08:49:13;11.38;;;3.72;;
39050;SDS011;24805;55.852;37.644;2023-03-14T08:54:18;10.05;;;3.60;;
39050;SDS011;24805;55.852;37.644;2023-03-14T08:59:20;6.75;;;3.38;;
39050;SDS011;24805;55.852;37.644;2023-03-14T09:04:23;5.38;;;3.60;;
39050;SDS011;24805;55.852;37.644;2023-03-14T09:09:25;6.55;;;2.95;;
39050;SDS011;24805;55.852;37.644;2023-03-14T09:14:31;6.07;;;3.30;;
39050;SDS011;24805;55.852;37.644;2023-03-14T09:19:34;6.53;;;3.30;;
39050;SDS011;24805;55.852;37.644;2023-03-14T09:24:36;7.72;;;3.08;;
39050;SDS011;24805;55.852;37.644;2023-03-14T09:29:38;6.82;;;2.83;;
39050;SDS011;24805;55.852;37.644;2023-03-14T09:34:41;9.45;;;3.25;;
39050;SDS011;24805;55.852;37.644;2023-03-14T09:39:43;6.45;;;2.97;;
39050;SDS011;24805;55.852;37.644;2023-03-14T09:44:50;3.58;;;2.70;;
39050;SDS011;24805;55.852;37.644;2023-03-14T09:50:13;5.88;;;2.65;;
39050;SDS011;24805;55.852;37.644;2023-03-14T09:55:20;6.38;;;2.45;;
39050;SDS011;24805;55.852;37.644;2023-03-14T10:00:25;9.85;;;3.42;;
39050;SDS011;24805;55.852;37.644;2023-03-14T10:05:30;5.18;;;3.08;;
39050;SDS011;24805;55.852;37.644;2023-03-14T10:10:32;8.90;;;3.35;;
39050;SDS011;24805;55.852;37.644;2023-03-14T10:15:34;4.85;;;3.17;;
39050;SDS011;24805;55.852;37.644;2023-03-14T10:20:38;5.85;;;2.90;;
39050;SDS011;24805;55.852;37.644;2023-03-14T10:25:46;4.75;;;2.70;;
39050;SDS011;24805;55.852;37.644;2023-03-14T10:31:02;5.43;;;2.70;;
39050;SDS011;24805;55.852;37.644;2023-03-14T10:41:30;5.13;;;3.25;;
39050;SDS011;24805;55.852;37.644;2023-03-14T10:46:35;7.55;;;3.80;;
39050;SDS011;24805;55.852;37.644;2023-03-14T10:51:57;8.43;;;3.63;;
39050;SDS011;24805;55.852;37.644;2023-03-14T10:57:04;9.43;;;4.00;;
39050;SDS011;24805;55.852;37.644;2023-03-14T11:12:41;7.25;;;3.20;;
39050;SDS011;24805;55.852;37.644;2023-03-14T11:23:17;6.07;;;3.53;;
39050;SDS011;24805;55.852;37.644;2023-03-14T11:28:33;10.35;;;3.53;;
39050;SDS011;24805;55.852;37.644;2023-03-14T11:33:46;10.82;;;4.13;;
39050;SDS011;24805;55.852;37.644;2023-03-14T11:38:57;9.68;;;2.97;;
39050;SDS011;24805;55.852;37.644;2023-03-14T11:44:02;5.22;;;2.85;;
39050;SDS011;24805;55.852;37.644;2023-03-14T11:54:43;6.97;;;3.28;;
39050;SDS011;24805;55.852;37.644;2023-03-14T12:00:04;7.45;;;2.90;;
39050;SDS011;24805;55.852;37.644;2023-03-14T12:15:56;5.40;;;2.85;;
39050;SDS011;24805;55.852;37.644;2023-03-14T12:21:01;8.35;;;2.97;;
39050;SDS011;24805;55.852;37.644;2023-03-14T12:41:53;7.22;;;3.05;;
39050;SDS011;24805;55.852;37.644;2023-03-14T12:52:21;7.45;;;3.08;;
39050;SDS011;24805;55.852;37.644;2023-03-14T12:57:37;4.45;;;2.88;;
39050;SDS011;24805;55.852;37.644;2023-03-14T13:02:42;6.22;;;3.00;;
39050;SDS011;24805;55.852;37.644;2023-03-14T13:13:03;6.93;;;3.53;;
39050;SDS011;24805;55.852;37.644;2023-03-14T13:18:36;7.38;;;3.58;;
39050;SDS011;24805;55.852;37.644;2023-03-14T13:23:40;7.63;;;3.08;;
39050;SDS011;24805;55.852;37.644;2023-03-14T13:28:59;7.13;;;2.78;;
39050;SDS011;24805;55.852;37.644;2023-03-14T13:34:09;5.50;;;3.30;;
39050;SDS011;24805;55.852;37.644;2023-03-14T13:39:16;9.30;;;3.08;;
39050;SDS011;24805;55.852;37.644;2023-03-14T13:44:29;5.03;;;2.75;;
39050;SDS011;24805;55.852;37.644;2023-03-14T13:49:40;6.60;;;3.05;;
39050;SDS011;24805;55.852;37.644;2023-03-14T13:54:42;5.53;;;2.80;;
39050;SDS011;24805;55.852;37.644;2023-03-14T13:59:45;5.38;;;3.33;;
39050;SDS011;24805;55.852;37.644;2023-03-14T14:05:10;4.78;;;2.35;;
39050;SDS011;24805;55.852;37.644;2023-03-14T14:10:14;9.50;;;3.40;;
39050;SDS011;24805;55.852;37.644;2023-03-14T14:15:23;8.82;;;2.75;;
39050;SDS011;24805;55.852;37.644;2023-03-14T14:20:35;6.07;;;3.08;;
39050;SDS011;24805;55.852;37.644;2023-03-14T14:25:42;5.35;;;2.80;;
39050;SDS011;24805;55.852;37.644;2023-03-14T14:30:45;7.38;;;2.95;;
39050;SDS011;24805;55.852;37.644;2023-03-14T14:35:49;7.13;;;3.50;;
39050;SDS011;24805;55.852;37.644;2023-03-14T14:41:01;7.00;;;3.65;;
39050;SDS011;24805;55.852;37.644;2023-03-14T14:46:05;4.30;;;2.67;;
39050;SDS011;24805;55.852;37.644;2023-03-14T14:51:10;9.20;;;3.05;;
39050;SDS011;24805;55.852;37.644;2023-03-14T14:56:27;6.15;;;3.45;;
39050;SDS011;24805;55.852;37.644;2023-03-14T15:01:32;6.15;;;3.33;;
39050;SDS011;24805;55.852;37.644;2023-03-14T15:06:44;5.30;;;3.22;;
39050;SDS011;24805;55.852;37.644;2023-03-14T15:11:49;7.10;;;3.47;;
39050;SDS011;24805;55.852;37.644;2023-03-14T15:16:51;5.15;;;3.13;;
39050;SDS011;24805;55.852;37.644;2023-03-14T15:21:54;6.20;;;3.25;;
39050;SDS011;24805;55.852;37.644;2023-03-14T15:26:56;4.38;;;3.25;;
39050;SDS011;24805;55.852;37.644;2023-03-14T15:31:58;6.10;;;3.10;;
39050;SDS011;24805;55.852;37.644;2023-03-14T15:37:00;6.50;;;3.38;;
39050;SDS011;24805;55.852;37.644;2023-03-14T15:42:08;7.95;;;3.90;;
39050;SDS011;24805;55.852;37.644;2023-03-14T15:47:10;5.50;;;3.50;;
39050;SDS011;24805;55.852;37.644;2023-03-14T15:52:13;4.90;;;3.00;;
39050;SDS011;24805;55.852;37.644;2023-03-14T15:57:15;6.38;;;3.20;;
39050;SDS011;24805;55.852;37.644;2023-03-14T16:02:17;6.97;;;3.20;;
39050;SDS011;24805;55.852;37.644;2023-03-14T16:07:19;5.60;;;3.42;;
39050;SDS011;24805;55.852;37.644;2023-03-14T16:12:21;5.20;;;2.95;;
39050;SDS011;24805;55.852;37.644;2023-03-14T16:17:23;5.57;;;2.90;;
39050;SDS011;24805;55.852;37.644;2023-03-14T16:22:26;9.90;;;3.55;;
39050;SDS011;24805;55.852;37.644;2023-03-14T16:27:28;4.38;;;2.55;;
39050;SDS011;24805;55.852;37.644;2023-03-14T16:32:32;11.77;;;3.63;;
39050;SDS011;24805;55.852;37.644;2023-03-14T16:37:34;6.72;;;2.53;;
39050;SDS011;24805;55.852;37.644;2023-03-14T16:42:36;6.55;;;3.33;;
39050;SDS011;24805;55.852;37.644;2023-03-14T16:47:55;5.13;;;3.00;;
39050;SDS011;24805;55.852;37.644;2023-03-14T16:52:57;5.45;;;3.03;;
39050;SDS011;24805;55.852;37.644;2023-03-14T16:57:59;6.97;;;3.00;;
39050;SDS011;24805;55.852;37.644;2023-03-14T17:03:02;6.50;;;3.45;;
39050;SDS011;24805;55.852;37.644;2023-03-14T17:08:05;7.35;;;3.42;;
39050;SDS011;24805;55.852;37.644;2023-03-14T17:13:08;7.93;;;3.33;;
39050;SDS011;24805;55.852;37.644;2023-03-14T17:18:11;6.55;;;3.10;;
39050;SDS011;24805;55.852;37.644;2023-03-14T17:23:13;7.03;;;2.97;;
39050;SDS011;24805;55.852;37.644;2023-03-14T17:28:17;5.47;;;3.10;;
39050;SDS011;24805;55.852;37.644;2023-03-14T17:33:20;7.63;;;3.22;;
39050;SDS011;24805;55.852;37.644;2023-03-14T17:38:22;6.10;;;2.85;;
39050;SDS011;24805;55.852;37.644;2023-03-14T17:43:25;5.75;;;2.72;;
39050;SDS011;24805;55.852;37.644;2023-03-14T17:48:27;5.50;;;2.60;;
39050;SDS011;24805;55.852;37.644;2023-03-14T17:53:30;5.35;;;2.08;;
39050;SDS011;24805;55.852;37.644;2023-03-14T17:58:32;5.40;;;2.72;;
39050;SDS011;24805;55.852;37.644;2023-03-14T18:03:37;4.78;;;2.25;;
39050;SDS011;24805;55.852;37.644;2023-03-14T18:08:39;5.95;;;2.60;;
39050;SDS011;24805;55.852;37.644;2023-03-14T18:13:45;6.30;;;2.53;;
39050;SDS011;24805;55.852;37.644;2023-03-14T18:18:48;5.35;;;2.80;;
39050;SDS011;24805;55.852;37.644;2023-03-14T18:23:51;5.18;;;2.28;;
39050;SDS011;24805;55.852;37.644;2023-03-14T18:28:53;5.53;;;3.05;;
39050;SDS011;24805;55.852;37.644;2023-03-14T18:33:55;4.43;;;2.38;;
39050;SDS011;24805;55.852;37.644;2023-03-14T18:38:58;4.10;;;2.30;;
39050;SDS011;24805;55.852;37.644;2023-03-14T18:44:01;3.05;;;1.90;;
39050;SDS011;24805;55.852;37.644;2023-03-14T18:49:04;5.13;;;2.05;;
39050;SDS011;24805;55.852;37.644;2023-03-14T18:54:08;6.40;;;2.10;;
39050;SDS011;24805;55.852;37.644;2023-03-14T18:59:12;5.90;;;2.35;;
39050;SDS011;24805;55.852;37.644;2023-03-14T19:04:14;3.30;;;1.55;;
39050;SDS011;24805;55.852;37.644;2023-03-14T19:09:16;3.55;;;1.85;;
39050;SDS011;24805;55.852;37.644;2023-03-14T19:14:18;4.13;;;2.25;;
39050;SDS011;24805;55.852;37.644;2023-03-14T19:19:21;6.70;;;1.92;;
39050;SDS011;24805;55.852;37.644;2023-03-14T19:24:23;3.70;;;1.30;;
39050;SDS011;24805;55.852;37.644;2023-03-14T19:29:25;2.78;;;1.40;;
39050;SDS011;24805;55.852;37.644;2023-03-14T19:34:27;4.85;;;1.75;;
39050;SDS011;24805;55.852;37.644;2023-03-14T19:39:30;4.93;;;1.80;;
39050;SDS011;24805;55.852;37.644;2023-03-14T19:44:32;3.65;;;1.70;;
39050;SDS011;24805;55.852;37.644;2023-03-14T19:49:34;4.30;;;1.33;;
39050;SDS011;24805;55.852;37.644;2023-03-14T19:54:37;3.88;;;1.67;;
39050;SDS011;24805;55.852;37.644;2023-03-14T19:59:39;3.70;;;1.48;;
39050;SDS011;24805;55.852;37.644;2023-03-14T20:04:41;4.25;;;1.30;;
39050;SDS011;24805;55.852;37.644;2023-03-14T20:09:45;3.20;;;1.05;;
39050;SDS011;24805;55.852;37.644;2023-03-14T20:14:47;6.10;;;1.52;;
39050;SDS011;24805;55.852;37.644;2023-03-14T20:19:49;2.90;;;1.20;;
39050;SDS011;24805;55.852;37.644;2023-03-14T20:24:51;2.63;;;1.00;;
39050;SDS011;24805;55.852;37.644;2023-03-14T20:29:56;4.93;;;1.45;;
39050;SDS011;24805;55.852;37.644;2023-03-14T20:34:58;2.40;;;1.13;;
39050;SDS011;24805;55.852;37.644;2023-03-14T20:40:04;4.70;;;1.58;;
39050;SDS011;24805;55.852;37.644;2023-03-14T20:45:13;1.42;;;0.52;;
39050;SDS011;24805;55.852;37.644;2023-03-14T20:50:15;2.20;;;0.90;;
39050;SDS011;24805;55.852;37.644;2023-03-14T20:55:18;2.40;;;0.90;;
39050;SDS011;24805;55.852;37.644;2023-03-14T21:00:20;3.53;;;1.23;;
39050;SDS011;24805;55.852;37.644;2023-03-14T21:05:23;3.28;;;1.40;;
39050;SDS011;24805;55.852;37.644;2023-03-14T21:10:25;6.25;;;1.25;;
39050;SDS011;24805;55.852;37.644;2023-03-14T21:15:27;4.35;;;1.25;;
39050;SDS011;24805;55.852;37.644;2023-03-14T21:20:31;2.92;;;1.00;;
39050;SDS011;24805;55.852;37.644;2023-03-14T21:25:34;2.40;;;1.30;;
39050;SDS011;24805;55.852;37.644;2023-03-14T21:30:36;3.67;;;1.20;;
39050;SDS011;24805;55.852;37.644;2023-03-14T21:35:38;5.03;;;2.47;;
39050;SDS011;24805;55.852;37.644;2023-03-14T21:40:41;2.75;;;1.40;;
39050;SDS011;24805;55.852;37.644;2023-03-14T21:45:43;3.20;;;1.10;;
39050;SDS011;24805;55.852;37.644;2023-03-14T21:50:45;2.63;;;0.80;;
39050;SDS011;24805;55.852;37.644;2023-03-14T21:55:47;3.42;;;1.08;;
39050;SDS011;24805;55.852;37.644;2023-03-14T22:00:50;3.05;;;0.90;;
39050;SDS011;24805;55.852;37.644;2023-03-14T22:05:52;4.32;;;1.40;;
39050;SDS011;24805;55.852;37.644;2023-03-14T22:10:54;3.58;;;1.05;;
39050;SDS011;24805;55.852;37.644;2023-03-14T22:15:57;1.73;;;0.88;;
39050;SDS011;24805;55.852;37.644;2023-03-14T22:20:59;2.92;;;1.13;;
39050;SDS011;24805;55.852;37.644;2023-03-14T22:26:02;2.15;;;0.85;;
39050;SDS011;24805;55.852;37.644;2023-03-14T22:31:04;3.50;;;1.25;;
39050;SDS011;24805;55.852;37.644;2023-03-14T22:36:07;2.35;;;0.98;;
39050;SDS011;24805;55.852;37.644;2023-03-14T22:41:10;2.67;;;1.10;;
39050;SDS011;24805;55.852;37.644;2023-03-14T22:46:12;2.95;;;1.10;;
39050;SDS011;24805;55.852;37.644;2023-03-14T22:51:15;3.33;;;1.38;;
39050;SDS011;24805;55.852;37.644;2023-03-14T22:56:17;3.30;;;1.35;;
39050;SDS011;24805;55.852;37.644;2023-03-14T23:01:19;5.20;;;1.90;;
39050;SDS011;24805;55.852;37.644;2023-03-14T23:06:22;4.72;;;1.33;;
39050;SDS011;24805;55.852;37.644;2023-03-14T23:11:24;6.13;;;2.05;;
39050;SDS011;24805;55.852;37.644;2023-03-14T23:16:29;3.58;;;1.25;;
39050;SDS011;24805;55.852;37.644;2023-03-14T23:21:40;3.53;;;1.27;;
39050;SDS011;24805;55.852;37.644;2023-03-14T23:26:43;5.25;;;1.60;;
39050;SDS011;24805;55.852;37.644;2023-03-14T23:31:46;3.70;;;1.30;;
39050;SDS011;24805;55.852;37.644;2023-03-14T23:36:48;5.80;;;1.42;;
39050;SDS011;24805;55.852;37.644;2023-03-14T23:41:50;2.92;;;1.20;;
39050;SDS011;24805;55.852;37.644;2023-03-14T23:46:53;3.97;;;1.70;;
39050;SDS011;24805;55.852;37.644;2023-03-14T23:51:55;3.50;;;1.70;;
39050;SDS011;24805;55.852;37.644;2023-03-14T23:56:57;4.95;;;1.98;;
